sensor_id;sensor_type;location;lat;lon;timestamp;pressure;altitude;pressure_sealevel;temperature;humidity
49044;BME280;34860;48.066;14.124;2023-01-04T00:00:48;97971.34;;;7.11;78.13
49044;BME280;34860;48.066;14.124;2023-01-04T00:03:36;97975.69;;;7.12;77.97
49044;BME280;34860;48.066;14.124;2023-01-04T00:06:24;97972.16;;;7.15;77.88
49044;BME280;34860;48.066;14.124;2023-01-04T00:09:12;97968.63;;;7.18;77.76
49044;BME280;34860;48.066;14.124;2023-01-04T00:12:00;97957.53;;;7.15;77.71
49044;BME280;34860;48.066;14.124;2023-01-04T00:14:48;97954.69;;;7.04;77.96
49044;BME280;34860;48.066;14.124;2023-01-04T00:17:38;97959.78;;;6.98;77.95
49044;BME280;34860;48.066;14.124;2023-01-04T00:20:26;97956.97;;;6.91;77.90
49044;BME280;34860;48.066;14.124;2023-01-04T00:23:15;97958.47;;;6.85;78.03
49044;BME280;34860;48.066;14.124;2023-01-04T00:26:06;97952.94;;;6.85;78.03
49044;BME280;34860;48.066;14.124;2023-01-04T00:28:55;97957.34;;;6.89;77.75
49044;BME280;34860;48.066;14.124;2023-01-04T00:31:44;97955.75;;;6.88;77.74
49044;BME280;34860;48.066;14.124;2023-01-04T00:34:34;97956.16;;;6.90;77.79
49044;BME280;34860;48.066;14.124;2023-01-04T00:37:22;97960.50;;;6.91;77.74
49044;BME280;34860;48.066;14.124;2023-01-04T00:40:11;97955.38;;;6.94;77.65
49044;BME280;34860;48.066;14.124;2023-01-04T00:42:59;97961.34;;;6.96;77.49
49044;BME280;34860;48.066;14.124;2023-01-04T00:45:47;97953.81;;;6.93;77.29
49044;BME280;34860;48.066;14.124;2023-01-04T00:48:34;97949.44;;;6.88;77.50
49044;BME280;34860;48.066;14.124;2023-01-04T00:51:27;97944.69;;;6.88;77.43
49044;BME280;34860;48.066;14.124;2023-01-04T00:54:16;97943.81;;;6.81;77.44
49044;BME280;34860;48.066;14.124;2023-01-04T00:57:04;97946.81;;;6.65;77.50
49044;BME280;34860;48.066;14.124;2023-01-04T00:59:52;97940.44;;;6.57;77.87
49044;BME280;34860;48.066;14.124;2023-01-04T01:02:40;97940.44;;;6.57;77.75
49044;BME280;34860;48.066;14.124;2023-01-04T01:05:29;97935.28;;;6.55;77.78
49044;BME280;34860;48.066;14.124;2023-01-04T01:08:18;97935.25;;;6.52;77.84
49044;BME280;34860;48.066;14.124;2023-01-04T01:11:12;97934.47;;;6.51;77.80
49044;BME280;34860;48.066;14.124;2023-01-04T01:14:00;97945.09;;;6.49;77.71
49044;BME280;34860;48.066;14.124;2023-01-04T01:16:48;97950.13;;;6.40;77.82
49044;BME280;34860;48.066;14.124;2023-01-04T01:19:45;97950.38;;;6.28;77.94
49044;BME280;34860;48.066;14.124;2023-01-04T01:22:34;97953.00;;;6.17;78.20
49044;BME280;34860;48.066;14.124;2023-01-04T01:25:24;97955.31;;;6.11;78.15
49044;BME280;34860;48.066;14.124;2023-01-04T01:28:11;97947.41;;;6.10;78.29
49044;BME280;34860;48.066;14.124;2023-01-04T01:31:04;97948.97;;;6.11;78.34
49044;BME280;34860;48.066;14.124;2023-01-04T01:33:55;97941.06;;;6.09;78.30
49044;BME280;34860;48.066;14.124;2023-01-04T01:36:43;97945.81;;;6.09;78.30
49044;BME280;34860;48.066;14.124;2023-01-04T01:39:31;97945.91;;;6.16;78.21
49044;BME280;34860;48.066;14.124;2023-01-04T01:42:20;97944.75;;;6.21;78.11
49044;BME280;34860;48.066;14.124;2023-01-04T01:45:21;97931.44;;;6.26;78.05
49044;BME280;34860;48.066;14.124;2023-01-04T01:48:14;97931.09;;;6.31;77.92
49044;BME280;34860;48.066;14.124;2023-01-04T01:51:03;97933.50;;;6.36;77.79
49044;BME280;34860;48.066;14.124;2023-01-04T01:53:56;97924.09;;;6.41;77.64
49044;BME280;34860;48.066;14.124;2023-01-04T01:56:48;97921.75;;;6.43;77.60
49044;BME280;34860;48.066;14.124;2023-01-04T01:59:41;97928.81;;;6.41;77.61
49044;BME280;34860;48.066;14.124;2023-01-04T02:02:31;97928.78;;;6.37;77.58
49044;BME280;34860;48.066;14.124;2023-01-04T02:05:20;97917.72;;;6.33;77.74
49044;BME280;34860;48.066;14.124;2023-01-04T02:08:09;97922.91;;;6.39;77.46
49044;BME280;34860;48.066;14.124;2023-01-04T02:10:58;97922.50;;;6.40;77.60
49044;BME280;34860;48.066;14.124;2023-01-04T02:13:46;97932.44;;;6.45;77.60
49044;BME280;34860;48.066;14.124;2023-01-04T02:17:09;97933.66;;;6.51;77.35
49044;BME280;34860;48.066;14.124;2023-01-04T02:20:22;97926.22;;;6.55;77.43
49044;BME280;34860;48.066;14.124;2023-01-04T02:23:33;97926.16;;;6.48;77.56
49044;BME280;34860;48.066;14.124;2023-01-04T02:26:53;97921.78;;;6.47;77.93
49044;BME280;34860;48.066;14.124;2023-01-04T02:30:06;97922.53;;;6.44;77.71
49044;BME280;34860;48.066;14.124;2023-01-04T02:33:11;97921.31;;;6.41;77.86
49044;BME280;34860;48.066;14.124;2023-01-04T02:36:06;97926.47;;;6.43;77.79
49044;BME280;34860;48.066;14.124;2023-01-04T02:39:04;97920.56;;;6.44;77.60
49044;BME280;34860;48.066;14.124;2023-01-04T02:42:00;97917.81;;;6.44;77.74
49044;BME280;34860;48.066;14.124;2023-01-04T02:44:53;97909.16;;;6.46;77.69
49044;BME280;34860;48.066;14.124;2023-01-04T02:47:45;97891.81;;;6.49;77.69
49044;BME280;34860;48.066;14.124;2023-01-04T02:50:54;97881.63;;;6.53;77.46
49044;BME280;34860;48.066;14.124;2023-01-04T02:53:43;97883.91;;;6.47;77.75
49044;BME280;34860;48.066;14.124;2023-01-04T02:56:43;97879.91;;;6.41;77.89
49044;BME280;34860;48.066;14.124;2023-01-04T02:59:47;97895.34;;;6.46;77.88
49044;BME280;34860;48.066;14.124;2023-01-04T03:02:51;97887.06;;;6.46;77.80
49044;BME280;34860;48.066;14.124;2023-01-04T03:06:08;97885.91;;;6.50;77.74
49044;BME280;34860;48.066;14.124;2023-01-04T03:09:06;97884.78;;;6.55;77.69
49044;BME280;34860;48.066;14.124;2023-01-04T03:12:02;97888.38;;;6.59;77.51
49044;BME280;34860;48.066;14.124;2023-01-04T03:15:13;97884.06;;;6.62;77.49
49044;BME280;34860;48.066;14.124;2023-01-04T03:18:09;97885.66;;;6.63;77.35
49044;BME280;34860;48.066;14.124;2023-01-04T03:21:03;97867.47;;;6.62;77.39
49044;BME280;34860;48.066;14.124;2023-01-04T03:23:54;97870.59;;;6.57;77.51
49044;BME280;34860;48.066;14.124;2023-01-04T03:27:05;97866.59;;;6.50;77.47
49044;BME280;34860;48.066;14.124;2023-01-04T03:30:13;97874.84;;;6.47;77.62
49044;BME280;34860;48.066;14.124;2023-01-04T03:33:31;97873.19;;;6.39;77.73
49044;BME280;34860;48.066;14.124;2023-01-04T03:36:48;97868.44;;;6.35;77.83
49044;BME280;34860;48.066;14.124;2023-01-04T03:39:45;97868.84;;;6.41;77.82
49044;BME280;34860;48.066;14.124;2023-01-04T03:42:55;97868.53;;;6.46;77.57
49044;BME280;34860;48.066;14.124;2023-01-04T03:46:06;97860.25;;;6.46;77.55
49044;BME280;34860;48.066;14.124;2023-01-04T03:49:16;97850.00;;;6.47;77.50
49044;BME280;34860;48.066;14.124;2023-01-04T03:52:07;97844.81;;;6.42;77.59
49044;BME280;34860;48.066;14.124;2023-01-04T03:54:58;97849.13;;;6.39;77.76
49044;BME280;34860;48.066;14.124;2023-01-04T03:57:47;97843.22;;;6.41;77.76
49044;BME280;34860;48.066;14.124;2023-01-04T04:00:36;97846.38;;;6.43;77.83
49044;BME280;34860;48.066;14.124;2023-01-04T04:03:29;97845.59;;;6.42;77.72
49044;BME280;34860;48.066;14.124;2023-01-04T04:06:35;97852.66;;;6.40;77.74
49044;BME280;34860;48.066;14.124;2023-01-04T04:09:41;97836.81;;;6.29;77.90
49044;BME280;34860;48.066;14.124;2023-01-04T04:12:29;97835.97;;;6.25;78.00
49044;BME280;34860;48.066;14.124;2023-01-04T04:15:17;97841.94;;;6.27;77.97
49044;BME280;34860;48.066;14.124;2023-01-04T04:18:05;97843.56;;;6.32;77.87
49044;BME280;34860;48.066;14.124;2023-01-04T04:20:56;97837.25;;;6.35;77.95
49044;BME280;34860;48.066;14.124;2023-01-04T04:23:44;97827.69;;;6.25;77.96
49044;BME280;34860;48.066;14.124;2023-01-04T04:26:34;97827.63;;;6.18;78.13
49044;BME280;34860;48.066;14.124;2023-01-04T04:29:22;97818.13;;;6.15;78.33
49044;BME280;34860;48.066;14.124;2023-01-04T04:32:11;97826.00;;;6.13;78.23
49044;BME280;34860;48.066;14.124;2023-01-04T04:34:59;97822.09;;;6.14;78.20
49044;BME280;34860;48.066;14.124;2023-01-04T04:37:47;97828.03;;;6.20;78.15
49044;BME280;34860;48.066;14.124;2023-01-04T04:40:37;97822.53;;;6.24;78.06
49044;BME280;34860;48.066;14.124;2023-01-04T04:43:44;97811.47;;;6.20;78.05
49044;BME280;34860;48.066;14.124;2023-01-04T04:46:32;97806.41;;;6.26;78.03
49044;BME280;34860;48.066;14.124;2023-01-04T04:49:20;97812.72;;;6.26;77.82
49044;BME280;34860;48.066;14.124;2023-01-04T04:52:08;97822.91;;;6.18;77.73
49044;BME280;34860;48.066;14.124;2023-01-04T04:54:56;97824.72;;;6.04;77.94
49044;BME280;34860;48.066;14.124;2023-01-04T04:57:44;97823.09;;;5.99;78.16
49044;BME280;34860;48.066;14.124;2023-01-04T05:00:34;97824.63;;;5.96;78.21
49044;BME280;34860;48.066;14.124;2023-01-04T05:03:22;97829.41;;;5.99;78.32
49044;BME280;34860;48.066;14.124;2023-01-04T05:06:10;97820.78;;;6.05;78.17
49044;BME280;34860;48.066;14.124;2023-01-04T05:08:58;97820.03;;;6.08;78.04
49044;BME280;34860;48.066;14.124;2023-01-04T05:11:46;97825.59;;;6.11;78.03
49044;BME280;34860;48.066;14.124;2023-01-04T05:14:51;97814.88;;;6.06;78.06
49044;BME280;34860;48.066;14.124;2023-01-04T05:17:40;97820.00;;;6.04;78.19
49044;BME280;34860;48.066;14.124;2023-01-04T05:20:28;97825.34;;;5.93;78.21
49044;BME280;34860;48.066;14.124;2023-01-04T05:23:18;97813.84;;;5.84;78.40
49044;BME280;34860;48.066;14.124;2023-01-04T05:26:06;97804.34;;;5.81;78.50
49044;BME280;34860;48.066;14.124;2023-01-04T05:28:54;97809.53;;;5.87;78.50
49044;BME280;34860;48.066;14.124;2023-01-04T05:31:42;97808.03;;;5.93;78.34
49044;BME280;34860;48.066;14.124;2023-01-04T05:34:30;97805.31;;;5.96;78.24
49044;BME280;34860;48.066;14.124;2023-01-04T05:37:18;97807.25;;;5.96;78.11
49044;BME280;34860;48.066;14.124;2023-01-04T05:40:07;97810.38;;;5.91;78.31
49044;BME280;34860;48.066;14.124;2023-01-04T05:42:55;97814.28;;;5.90;78.25
49044;BME280;34860;48.066;14.124;2023-01-04T05:45:46;97809.94;;;5.89;78.17
49044;BME280;34860;48.066;14.124;2023-01-04T05:48:35;97812.75;;;5.92;78.28
49044;BME280;34860;48.066;14.124;2023-01-04T05:51:25;97799.75;;;5.93;78.28
49044;BME280;34860;48.066;14.124;2023-01-04T05:54:13;97807.63;;;5.91;78.24
49044;BME280;34860;48.066;14.124;2023-01-04T05:57:05;97815.44;;;5.89;78.34
49044;BME280;34860;48.066;14.124;2023-01-04T05:59:53;97809.84;;;5.78;78.42
49044;BME280;34860;48.066;14.124;2023-01-04T06:02:42;97812.59;;;5.78;78.57
49044;BME280;34860;48.066;14.124;2023-01-04T06:05:30;97815.06;;;5.90;78.32
49044;BME280;34860;48.066;14.124;2023-01-04T06:08:22;97808.44;;;5.95;78.04
49044;BME280;34860;48.066;14.124;2023-01-04T06:11:10;97815.97;;;5.98;77.94
49044;BME280;34860;48.066;14.124;2023-01-04T06:13:58;97810.16;;;6.03;77.88
49044;BME280;34860;48.066;14.124;2023-01-04T06:16:46;97805.38;;;6.00;77.83
49044;BME280;34860;48.066;14.124;2023-01-04T06:19:34;97805.25;;;5.93;77.99
49044;BME280;34860;48.066;14.124;2023-01-04T06:22:23;97806.75;;;5.83;78.13
49044;BME280;34860;48.066;14.124;2023-01-04T06:25:14;97801.97;;;5.80;78.29
49044;BME280;34860;48.066;14.124;2023-01-04T06:28:02;97807.13;;;5.81;78.33
49044;BME280;34860;48.066;14.124;2023-01-04T06:30:50;97797.69;;;5.82;78.33
49044;BME280;34860;48.066;14.124;2023-01-04T06:33:39;97805.19;;;5.86;78.22
49044;BME280;34860;48.066;14.124;2023-01-04T06:36:27;97805.59;;;5.88;78.24
49044;BME280;34860;48.066;14.124;2023-01-04T06:39:15;97807.63;;;5.91;78.19
49044;BME280;34860;48.066;14.124;2023-01-04T06:42:07;97804.03;;;5.90;78.20
49044;BME280;34860;48.066;14.124;2023-01-04T06:45:16;97802.88;;;5.91;78.27
49044;BME280;34860;48.066;14.124;2023-01-04T06:48:05;97800.97;;;5.95;78.07
49044;BME280;34860;48.066;14.124;2023-01-04T06:50:54;97799.72;;;5.89;77.95
49044;BME280;34860;48.066;14.124;2023-01-04T06:53:42;97791.69;;;5.77;78.23
49044;BME280;34860;48.066;14.124;2023-01-04T06:56:30;97796.00;;;5.74;78.36
49044;BME280;34860;48.066;14.124;2023-01-04T06:59:20;97790.53;;;5.78;78.15
49044;BME280;34860;48.066;14.124;2023-01-04T07:02:12;97790.94;;;5.80;78.12
49044;BME280;34860;48.066;14.124;2023-01-04T07:05:00;97791.78;;;5.84;78.09
49044;BME280;34860;48.066;14.124;2023-01-04T07:07:48;97786.59;;;5.79;78.08
49044;BME280;34860;48.066;14.124;2023-01-04T07:10:39;97792.03;;;5.72;78.23
49044;BME280;34860;48.066;14.124;2023-01-04T07:13:27;97795.91;;;5.67;78.36
49044;BME280;34860;48.066;14.124;2023-01-04T07:16:16;97796.25;;;5.62;78.35
49044;BME280;34860;48.066;14.124;2023-01-04T07:19:06;97800.59;;;5.63;78.23
49044;BME280;34860;48.066;14.124;2023-01-04T07:21:54;97786.31;;;5.54;78.40
49044;BME280;34860;48.066;14.124;2023-01-04T07:24:44;97788.97;;;5.46;78.47
49044;BME280;34860;48.066;14.124;2023-01-04T07:27:32;97789.34;;;5.45;78.39
49044;BME280;34860;48.066;14.124;2023-01-04T07:30:21;97780.38;;;5.52;78.30
49044;BME280;34860;48.066;14.124;2023-01-04T07:33:11;97784.38;;;5.58;78.22
49044;BME280;34860;48.066;14.124;2023-01-04T07:36:03;97785.09;;;5.51;78.12
49044;BME280;34860;48.066;14.124;2023-01-04T07:38:51;97797.59;;;5.41;78.36
49044;BME280;34860;48.066;14.124;2023-01-04T07:41:39;97790.78;;;5.32;78.28
49044;BME280;34860;48.066;14.124;2023-01-04T07:44:28;97792.31;;;5.29;78.22
49044;BME280;34860;48.066;14.124;2023-01-04T07:47:16;97795.06;;;5.29;78.40
49044;BME280;34860;48.066;14.124;2023-01-04T07:50:06;97791.59;;;5.36;78.26
49044;BME280;34860;48.066;14.124;2023-01-04T07:52:54;97791.56;;;5.32;78.35
49044;BME280;34860;48.066;14.124;2023-01-04T07:55:42;97794.72;;;5.34;78.42
49044;BME280;34860;48.066;14.124;2023-01-04T07:58:31;97788.03;;;5.32;78.42
49044;BME280;34860;48.066;14.124;2023-01-04T08:01:20;97782.88;;;5.30;78.53
49044;BME280;34860;48.066;14.124;2023-01-04T08:04:09;97786.75;;;5.25;78.30
49044;BME280;34860;48.066;14.124;2023-01-04T08:06:59;97789.75;;;5.13;78.25
49044;BME280;34860;48.066;14.124;2023-01-04T08:09:47;97789.59;;;5.02;78.42
49044;BME280;34860;48.066;14.124;2023-01-04T08:12:35;97791.47;;;4.95;78.39
49044;BME280;34860;48.066;14.124;2023-01-04T08:15:23;97798.50;;;4.92;78.42
49044;BME280;34860;48.066;14.124;2023-01-04T08:18:12;97796.44;;;4.85;78.46
49044;BME280;34860;48.066;14.124;2023-01-04T08:21:01;97786.53;;;4.81;78.55
49044;BME280;34860;48.066;14.124;2023-01-04T08:23:52;97792.00;;;4.77;78.49
49044;BME280;34860;48.066;14.124;2023-01-04T08:26:41;97789.66;;;4.79;78.47
49044;BME280;34860;48.066;14.124;2023-01-04T08:29:29;97785.06;;;4.87;78.50
49044;BME280;34860;48.066;14.124;2023-01-04T08:32:20;97789.50;;;4.95;78.45
49044;BME280;34860;48.066;14.124;2023-01-04T08:35:08;97787.56;;;4.99;78.19
49044;BME280;34860;48.066;14.124;2023-01-04T08:37:56;97793.81;;;4.96;78.08
49044;BME280;34860;48.066;14.124;2023-01-04T08:40:54;97796.50;;;4.89;78.18
49044;BME280;34860;48.066;14.124;2023-01-04T08:43:42;97788.19;;;4.85;78.29
49044;BME280;34860;48.066;14.124;2023-01-04T08:46:30;97784.97;;;4.83;78.24
49044;BME280;34860;48.066;14.124;2023-01-04T08:49:19;97785.06;;;4.87;78.36
49044;BME280;34860;48.066;14.124;2023-01-04T08:52:08;97793.00;;;4.92;78.10
49044;BME280;34860;48.066;14.124;2023-01-04T08:54:57;97781.97;;;4.92;78.22
49044;BME280;34860;48.066;14.124;2023-01-04T08:57:46;97780.69;;;4.86;78.25
49044;BME280;34860;48.066;14.124;2023-01-04T09:00:34;97778.31;;;4.84;78.30
49044;BME280;34860;48.066;14.124;2023-01-04T09:03:22;97782.97;;;4.80;78.29
49044;BME280;34860;48.066;14.124;2023-01-04T09:06:13;97781.34;;;4.76;78.39
49044;BME280;34860;48.066;14.124;2023-01-04T09:09:01;97782.50;;;4.75;78.39
49044;BME280;34860;48.066;14.124;2023-01-04T09:11:49;97782.03;;;4.69;78.38
49044;BME280;34860;48.066;14.124;2023-01-04T09:14:38;97777.66;;;4.64;78.47
49044;BME280;34860;48.066;14.124;2023-01-04T09:17:26;97769.69;;;4.59;78.36
49044;BME280;34860;48.066;14.124;2023-01-04T09:20:15;97779.41;;;4.53;78.47
49044;BME280;34860;48.066;14.124;2023-01-04T09:23:03;97775.03;;;4.48;78.45
49044;BME280;34860;48.066;14.124;2023-01-04T09:25:51;97767.94;;;4.47;78.38
49044;BME280;34860;48.066;14.124;2023-01-04T09:28:39;97769.53;;;4.48;78.48
49044;BME280;34860;48.066;14.124;2023-01-04T09:31:28;97762.38;;;4.44;78.35
49044;BME280;34860;48.066;14.124;2023-01-04T09:34:16;97766.66;;;4.41;78.41
49044;BME280;34860;48.066;14.124;2023-01-04T09:37:04;97756.81;;;4.40;78.26
49044;BME280;34860;48.066;14.124;2023-01-04T09:39:52;97762.56;;;4.31;78.30
49044;BME280;34860;48.066;14.124;2023-01-04T09:42:42;97763.19;;;4.21;78.41
49044;BME280;34860;48.066;14.124;2023-01-04T09:45:31;97752.13;;;4.17;78.41
49044;BME280;34860;48.066;14.124;2023-01-04T09:48:23;97747.13;;;4.23;78.42
49044;BME280;34860;48.066;14.124;2023-01-04T09:51:15;97753.53;;;4.31;78.38
49044;BME280;34860;48.066;14.124;2023-01-04T09:54:07;97753.16;;;4.32;78.30
49044;BME280;34860;48.066;14.124;2023-01-04T09:56:59;97738.66;;;4.35;78.25
49044;BME280;34860;48.066;14.124;2023-01-04T09:59:48;97740.16;;;4.29;78.24
49044;BME280;34860;48.066;14.124;2023-01-04T10:02:41;97734.28;;;4.31;78.38
49044;BME280;34860;48.066;14.124;2023-01-04T10:05:32;97734.00;;;4.40;78.17
49044;BME280;34860;48.066;14.124;2023-01-04T10:08:21;97731.78;;;4.49;78.21
49044;BME280;34860;48.066;14.124;2023-01-04T10:11:20;97734.75;;;4.63;78.02
49044;BME280;34860;48.066;14.124;2023-01-04T10:14:21;97725.78;;;4.70;77.99
49044;BME280;34860;48.066;14.124;2023-01-04T10:17:28;97718.44;;;4.78;78.01
49044;BME280;34860;48.066;14.124;2023-01-04T10:20:53;97709.50;;;4.88;78.02
49044;BME280;34860;48.066;14.124;2023-01-04T10:24:21;97706.66;;;5.11;77.80
49044;BME280;34860;48.066;14.124;2023-01-04T10:27:20;97698.84;;;5.17;77.97
49044;BME280;34860;48.066;14.124;2023-01-04T10:30:22;97701.34;;;5.29;78.04
49044;BME280;34860;48.066;14.124;2023-01-04T10:33:16;97686.94;;;5.43;77.79
49044;BME280;34860;48.066;14.124;2023-01-04T10:36:16;97673.97;;;5.47;77.79
49044;BME280;34860;48.066;14.124;2023-01-04T10:39:11;97671.56;;;5.42;78.12
49044;BME280;34860;48.066;14.124;2023-01-04T10:42:11;97675.50;;;5.41;78.54
49044;BME280;34860;48.066;14.124;2023-01-04T10:45:08;97664.41;;;5.37;78.51
49044;BME280;34860;48.066;14.124;2023-01-04T10:48:05;97658.16;;;5.40;78.74
49044;BME280;34860;48.066;14.124;2023-01-04T10:50:54;97656.66;;;5.46;78.73
49044;BME280;34860;48.066;14.124;2023-01-04T10:53:51;97659.50;;;5.57;78.66
49044;BME280;34860;48.066;14.124;2023-01-04T10:56:46;97646.53;;;5.61;78.43
49044;BME280;34860;48.066;14.124;2023-01-04T10:59:42;97639.13;;;5.69;78.36
49044;BME280;34860;48.066;14.124;2023-01-04T11:02:36;97645.44;;;5.70;78.40
49044;BME280;34860;48.066;14.124;2023-01-04T11:05:29;97639.88;;;5.66;78.46
49044;BME280;34860;48.066;14.124;2023-01-04T11:08:22;97627.75;;;5.74;78.36
49044;BME280;34860;48.066;14.124;2023-01-04T11:11:16;97627.06;;;5.85;78.78
49044;BME280;34860;48.066;14.124;2023-01-04T11:14:06;97622.06;;;5.97;78.46
49044;BME280;34860;48.066;14.124;2023-01-04T11:16:58;97619.69;;;5.99;78.42
49044;BME280;34860;48.066;14.124;2023-01-04T11:19:48;97613.41;;;5.99;78.54
49044;BME280;34860;48.066;14.124;2023-01-04T11:22:38;97614.22;;;6.03;78.74
49044;BME280;34860;48.066;14.124;2023-01-04T11:25:31;97611.50;;;6.10;78.55
49044;BME280;34860;48.066;14.124;2023-01-04T11:28:25;97607.97;;;6.10;78.59
49044;BME280;34860;48.066;14.124;2023-01-04T11:31:20;97598.81;;;5.98;78.80
49044;BME280;34860;48.066;14.124;2023-01-04T11:34:09;97595.28;;;6.02;79.02
49044;BME280;34860;48.066;14.124;2023-01-04T11:36:57;97587.50;;;6.14;79.01
49044;BME280;34860;48.066;14.124;2023-01-04T11:39:45;97573.34;;;6.27;78.88
49044;BME280;34860;48.066;14.124;2023-01-04T11:42:35;97575.38;;;6.33;78.48
49044;BME280;34860;48.066;14.124;2023-01-04T11:45:26;97571.03;;;6.40;78.43
49044;BME280;34860;48.066;14.124;2023-01-04T11:48:14;97571.09;;;6.43;78.44
49044;BME280;34860;48.066;14.124;2023-01-04T11:51:02;97568.72;;;6.49;78.55
49044;BME280;34860;48.066;14.124;2023-01-04T11:53:59;97554.53;;;6.50;78.44
49044;BME280;34860;48.066;14.124;2023-01-04T11:57:00;97558.84;;;6.44;78.39
49044;BME280;34860;48.066;14.124;2023-01-04T12:00:06;97558.84;;;6.41;78.73
49044;BME280;34860;48.066;14.124;2023-01-04T12:03:09;97565.94;;;6.45;78.63
49044;BME280;34860;48.066;14.124;2023-01-04T12:05:57;97554.97;;;6.56;78.51
49044;BME280;34860;48.066;14.124;2023-01-04T12:08:45;97551.03;;;6.64;78.22
49044;BME280;34860;48.066;14.124;2023-01-04T12:11:35;97526.97;;;6.65;78.44
49044;BME280;34860;48.066;14.124;2023-01-04T12:14:28;97543.53;;;6.65;78.47
49044;BME280;34860;48.066;14.124;2023-01-04T12:17:21;97520.28;;;6.69;78.59
49044;BME280;34860;48.066;14.124;2023-01-04T12:20:13;97517.50;;;6.66;78.52
49044;BME280;34860;48.066;14.124;2023-01-04T12:23:05;97513.97;;;6.69;78.46
49044;BME280;34860;48.066;14.124;2023-01-04T12:25:53;97510.81;;;6.74;78.46
49044;BME280;34860;48.066;14.124;2023-01-04T12:28:43;97496.97;;;6.67;78.48
49044;BME280;34860;48.066;14.124;2023-01-04T12:31:32;97485.91;;;6.56;78.84
49044;BME280;34860;48.066;14.124;2023-01-04T12:34:39;97500.91;;;6.59;79.06
49044;BME280;34860;48.066;14.124;2023-01-04T12:37:45;97483.56;;;6.58;79.05
49044;BME280;34860;48.066;14.124;2023-01-04T12:40:51;97486.31;;;6.58;79.22
49044;BME280;34860;48.066;14.124;2023-01-04T12:43:40;97480.00;;;6.65;78.95
49044;BME280;34860;48.066;14.124;2023-01-04T12:46:37;97469.38;;;6.70;78.80
49044;BME280;34860;48.066;14.124;2023-01-04T12:49:51;97461.50;;;6.65;78.81
49044;BME280;34860;48.066;14.124;2023-01-04T12:52:48;97467.75;;;6.59;79.02
49044;BME280;34860;48.066;14.124;2023-01-04T12:55:56;97446.47;;;6.63;78.91
49044;BME280;34860;48.066;14.124;2023-01-04T12:59:06;97451.59;;;6.71;79.00
49044;BME280;34860;48.066;14.124;2023-01-04T13:02:17;97453.63;;;6.93;78.74
49044;BME280;34860;48.066;14.124;2023-01-04T13:05:29;97449.69;;;7.08;78.39
49044;BME280;34860;48.066;14.124;2023-01-04T13:08:41;97455.22;;;7.19;78.17
49044;BME280;34860;48.066;14.124;2023-01-04T13:11:46;97456.78;;;7.23;77.76
49044;BME280;34860;48.066;14.124;2023-01-04T13:14:42;97460.34;;;7.20;78.02
49044;BME280;34860;48.066;14.124;2023-01-04T13:17:37;97463.91;;;7.17;78.01
49044;BME280;34860;48.066;14.124;2023-01-04T13:20:27;97464.69;;;7.14;78.04
49044;BME280;34860;48.066;14.124;2023-01-04T13:23:16;97470.59;;;6.98;77.90
49044;BME280;34860;48.066;14.124;2023-01-04T13:26:31;97464.28;;;6.90;78.06
49044;BME280;34860;48.066;14.124;2023-01-04T13:29:21;97460.31;;;6.81;78.32
49044;BME280;34860;48.066;14.124;2023-01-04T13:32:11;97467.03;;;6.80;78.39
49044;BME280;34860;48.066;14.124;2023-01-04T13:35:01;97467.81;;;6.77;78.14
49044;BME280;34860;48.066;14.124;2023-01-04T13:37:53;97470.94;;;6.71;78.19
49044;BME280;34860;48.066;14.124;2023-01-04T13:40:45;97467.78;;;6.66;78.22
49044;BME280;34860;48.066;14.124;2023-01-04T13:43:52;97466.59;;;6.56;78.34
49044;BME280;34860;48.066;14.124;2023-01-04T13:46:43;97459.06;;;6.49;78.28
49044;BME280;34860;48.066;14.124;2023-01-04T13:49:31;97469.72;;;6.51;78.40
49044;BME280;34860;48.066;14.124;2023-01-04T13:52:21;97448.44;;;6.51;78.24
49044;BME280;34860;48.066;14.124;2023-01-04T13:55:31;97452.75;;;6.52;78.24
49044;BME280;34860;48.066;14.124;2023-01-04T13:58:21;97436.56;;;6.51;78.21
49044;BME280;34860;48.066;14.124;2023-01-04T14:01:18;97442.91;;;6.48;78.49
49044;BME280;34860;48.066;14.124;2023-01-04T14:04:13;97444.06;;;6.54;78.30
49044;BME280;34860;48.066;14.124;2023-01-04T14:07:02;97448.81;;;6.53;78.25
49044;BME280;34860;48.066;14.124;2023-01-04T14:09:52;97443.69;;;6.52;78.12
49044;BME280;34860;48.066;14.124;2023-01-04T14:12:44;97448.78;;;6.43;78.27
49044;BME280;34860;48.066;14.124;2023-01-04T14:15:33;97452.72;;;6.38;78.42
49044;BME280;34860;48.066;14.124;2023-01-04T14:18:28;97457.06;;;6.35;78.61
49044;BME280;34860;48.066;14.124;2023-01-04T14:21:17;97461.81;;;6.39;78.53
49044;BME280;34860;48.066;14.124;2023-01-04T14:24:29;97445.63;;;6.41;78.47
49044;BME280;34860;48.066;14.124;2023-01-04T14:27:39;97438.13;;;6.34;78.47
49044;BME280;34860;48.066;14.124;2023-01-04T14:30:28;97431.78;;;6.30;78.48
49044;BME280;34860;48.066;14.124;2023-01-04T14:33:17;97418.38;;;6.25;78.60
49044;BME280;34860;48.066;14.124;2023-01-04T14:36:11;97408.09;;;6.18;78.45
49044;BME280;34860;48.066;14.124;2023-01-04T14:39:10;97399.78;;;6.11;78.62
49044;BME280;34860;48.066;14.124;2023-01-04T14:41:59;97399.78;;;6.04;78.77
49044;BME280;34860;48.066;14.124;2023-01-04T14:44:47;97396.19;;;5.99;78.89
49044;BME280;34860;48.066;14.124;2023-01-04T14:47:36;97391.09;;;6.02;78.89
49044;BME280;34860;48.066;14.124;2023-01-04T14:50:24;97382.41;;;5.99;78.72
49044;BME280;34860;48.066;14.124;2023-01-04T14:53:13;97376.84;;;5.92;78.74
49044;BME280;34860;48.066;14.124;2023-01-04T14:56:02;97375.97;;;5.77;78.86
49044;BME280;34860;48.066;14.124;2023-01-04T14:58:50;97375.97;;;5.74;78.91
49044;BME280;34860;48.066;14.124;2023-01-04T15:01:38;97371.25;;;5.74;79.02
49044;BME280;34860;48.066;14.124;2023-01-04T15:04:26;97360.19;;;5.71;78.78
49044;BME280;34860;48.066;14.124;2023-01-04T15:07:31;97349.53;;;5.62;78.90
49044;BME280;34860;48.066;14.124;2023-01-04T15:10:23;97345.97;;;5.54;78.90
49044;BME280;34860;48.066;14.124;2023-01-04T15:13:12;97345.13;;;5.50;79.01
49044;BME280;34860;48.066;14.124;2023-01-04T15:16:00;97340.78;;;5.45;78.68